Portada
METAR-TAF:

METAR-TAF

Aeroports :

Al-Hassà, Aràbia Saudita

latitud: 25-18N, longitud: 049-29E, altitud: 179 m

Observació

L'informe es va fer fa 1 hora i 19 minuts, a les 14:00 UTC
Vent 6 kt del Sud-Est
Temperatura 29°C
Humitat 11%
Pressió 1012 hPa
Visibilitat 10 km o més
sense núvols per sota de 1500 mi sense presència de cumulonimbus.

METAR: OEAH 081400Z 13006KT CAVOK 29/M04 Q1012 NOSIG

Hora: 18:19 (15:19 UTC)

Pronòstic

L'informe es va fer fa 4 hores i 19 minuts, a les 11:00 UTC
Pronòstic vàlid del 08 a les 12 UTC al 09 a les 18 UTC
Vent 10 kt del Sud-Est
Visibilitat: 7000 m
Evolucionant progressivament
l' 08 a les 18 UTC al 08 a les 20 UTC
Vent 15 kt del Sud-Oest
Temporalment
l' 08 a les 20 UTC al 09 a les 08 UTC
Visibilitat: 3500 m
torb alta de pols

TAF: OEAH 081100Z 0812/0918 14010KT 7000 NSC BECMG 0818/0820 23015KT TEMPO 0820/0908 3500 BLDU

Observacions i pronòstics meteorològics de més de 4000 aeroports (METAR i TAF).

Les estacions disponibles són els punts grocs i vermells al mapa.

Posi el ratolí al punt desitjat per veure el nom de l'estació.

Feu clic per veure les observacions i els pronòstics meteorològics.

Per canviar el mapa: feu clic els botons verds amb una creu de color negre per apropar; al botó verd amb un guió per allunyar la imatge; o en les fletxes verdes per a mapes adjacents.


METAR-TAF: